Time;durP1;ratioP1;P1;durP2;ratioP2;P2;SDS_P1;SDS_P2;PMS_P1;PMS_P2;Temp;Humidity;BMP_temperature;BMP_pressure;BME280_temperature;BME280_humidity;BME280_pressure;Samples;Min_cycle;Max_cycle;Signal;HPM_P1;HPM_P2
2023/05/15 00:01:49;;;;;;;4.67;4.03;;;;;;;;;;5035146;28;20412;-85
2023/05/15 00:04:15;;;;;;;5.50;4.23;;;;;;;;;;5017763;28;20427;-84
2023/05/15 00:06:41;;;;;;;5.37;3.07;;;;;;;;;;5043342;28;20549;-85
2023/05/15 00:09:07;;;;;;;4.93;3.37;;;;;;;;;;5043067;28;20474;-86
2023/05/15 00:11:33;;;;;;;6.50;4.23;;;;;;;;;;5043340;28;20561;-86
2023/05/15 00:13:59;;;;;;;11.73;5.37;;;;;;;;;;5042711;28;20468;-85
2023/05/15 00:16:25;;;;;;;4.70;4.30;;;;;;;;;;5053267;28;20454;-84
2023/05/15 00:18:51;;;;;;;6.30;4.57;;;;;;;;;;5037186;28;20499;-84
2023/05/15 00:21:17;;;;;;;5.33;4.00;;;;;;;;;;5037108;28;21000;-85
2023/05/15 00:23:43;;;;;;;6.87;4.43;;;;;;;;;;5054916;28;20172;-84
2023/05/15 00:26:09;;;;;;;6.73;4.83;;;;;;;;;;5055105;28;20174;-88
2023/05/15 00:28:34;;;;;;;6.40;4.83;;;;;;;;;;5037310;28;20216;-88
2023/05/15 00:31:00;;;;;;;4.40;3.77;;;;;;;;;;5055161;28;20445;-88
2023/05/15 00:33:26;;;;;;;7.23;5.23;;;;;;;;;;5054892;28;20639;-88
2023/05/15 00:35:52;;;;;;;6.30;4.40;;;;;;;;;;5054956;28;20163;-89
2023/05/15 00:38:18;;;;;;;5.67;3.77;;;;;;;;;;5036908;28;20419;-87
2023/05/15 00:40:45;;;;;;;8.33;4.37;;;;;;;;;;5015049;28;20189;-85
2023/05/15 00:43:11;;;;;;;5.00;4.60;;;;;;;;;;5054740;28;20235;-88
2023/05/15 00:45:40;;;;;;;4.20;3.80;;;;;;;;;;5036077;28;20428;-88
2023/05/15 00:48:08;;;;;;;5.90;4.27;;;;;;;;;;5036657;28;20989;-88
2023/05/15 00:50:40;;;;;;;4.97;4.17;;;;;;;;;;5054546;28;20424;-89
2023/05/15 00:53:06;;;;;;;8.00;4.53;;;;;;;;;;5054647;28;20401;-89
2023/05/15 00:55:33;;;;;;;10.10;4.20;;;;;;;;;;5054541;28;20502;-88
2023/05/15 00:58:00;;;;;;;5.63;3.90;;;;;;;;;;5054388;28;20417;-88
2023/05/15 01:00:26;;;;;;;5.80;3.90;;;;;;;;;;5054504;28;20430;-88
2023/05/15 01:02:53;;;;;;;6.43;5.07;;;;;;;;;;5054537;28;20940;-87
2023/05/15 01:05:19;;;;;;;6.77;4.63;;;;;;;;;;5054278;28;20419;-88
2023/05/15 01:07:51;;;;;;;6.17;4.50;;;;;;;;;;5054086;28;20459;-86
2023/05/15 01:10:17;;;;;;;6.00;4.50;;;;;;;;;;5036265;28;20412;-87
2023/05/15 01:12:43;;;;;;;5.23;4.40;;;;;;;;;;5035998;28;21052;-85
2023/05/15 01:15:10;;;;;;;7.53;4.90;;;;;;;;;;5053963;28;20443;-86
2023/05/15 01:17:36;;;;;;;5.57;3.70;;;;;;;;;;5053591;28;20783;-87
2023/05/15 01:20:05;;;;;;;5.73;4.47;;;;;;;;;;5053911;28;20416;-87
2023/05/15 01:22:37;;;;;;;5.73;4.77;;;;;;;;;;5053870;28;20758;-85
2023/05/15 01:25:06;;;;;;;7.40;4.50;;;;;;;;;;5053856;28;20403;-86
2023/05/15 01:27:36;;;;;;;6.17;4.47;;;;;;;;;;5053780;28;20408;-87
2023/05/15 01:30:17;;;;;;;6.70;4.93;;;;;;;;;;5035786;28;20932;-85
2023/05/15 01:32:43;;;;;;;4.77;4.30;;;;;;;;;;5035328;28;20420;-86
2023/05/15 01:35:21;;;;;;;4.83;4.10;;;;;;;;;;5035706;28;20413;-84
2023/05/15 01:37:49;;;;;;;5.77;4.97;;;;;;;;;;5053587;28;20184;-85
2023/05/15 01:40:16;;;;;;;4.67;4.23;;;;;;;;;;5053513;28;20772;-86
2023/05/15 01:42:44;;;;;;;7.57;4.90;;;;;;;;;;5053454;28;20424;-84
2023/05/15 01:45:11;;;;;;;5.73;4.67;;;;;;;;;;5053428;28;20439;-85
2023/05/15 01:47:43;;;;;;;6.00;5.10;;;;;;;;;;5035119;28;20421;-85
2023/05/15 01:50:10;;;;;;;7.90;5.27;;;;;;;;;;5035441;28;20548;-85
2023/05/15 01:52:39;;;;;;;7.60;5.27;;;;;;;;;;5053553;28;20408;-85
2023/05/15 01:55:06;;;;;;;5.43;4.93;;;;;;;;;;5035522;28;20435;-85
2023/05/15 01:57:33;;;;;;;6.10;5.50;;;;;;;;;;5053003;28;20453;-86
2023/05/15 01:59:59;;;;;;;5.40;4.57;;;;;;;;;;5035227;28;20410;-84
2023/05/15 02:02:26;;;;;;;6.30;5.07;;;;;;;;;;5052781;28;20512;-86
2023/05/15 02:04:52;;;;;;;5.57;5.00;;;;;;;;;;5053131;28;20433;-84
2023/05/15 02:07:19;;;;;;;6.33;4.27;;;;;;;;;;5053087;28;20477;-85
2023/05/15 02:09:45;;;;;;;6.40;4.60;;;;;;;;;;5052999;28;20479;-84
2023/05/15 02:12:11;;;;;;;5.00;3.90;;;;;;;;;;5011470;28;20465;-84
2023/05/15 02:14:38;;;;;;;5.73;4.37;;;;;;;;;;5052976;28;20419;-84
2023/05/15 02:17:04;;;;;;;5.43;4.93;;;;;;;;;;5052632;28;20416;-84
2023/05/15 02:19:30;;;;;;;6.00;5.27;;;;;;;;;;5034817;28;20422;-84
2023/05/15 02:21:56;;;;;;;7.80;5.43;;;;;;;;;;5052973;28;20415;-85
2023/05/15 02:24:25;;;;;;;6.90;5.10;;;;;;;;;;5052977;28;20417;-85
2023/05/15 02:27:03;;;;;;;5.87;5.30;;;;;;;;;;5052753;28;20830;-84
2023/05/15 02:29:41;;;;;;;6.10;5.27;;;;;;;;;;5052683;28;20975;-84
2023/05/15 02:32:17;;;;;;;5.27;4.73;;;;;;;;;;5052434;28;20412;-84
2023/05/15 02:34:55;;;;;;;6.37;4.53;;;;;;;;;;5052799;28;20423;-85
2023/05/15 02:37:25;;;;;;;6.33;4.70;;;;;;;;;;5034850;28;20413;-85
2023/05/15 02:39:53;;;;;;;6.83;4.77;;;;;;;;;;5034801;28;20479;-84
2023/05/15 02:42:20;;;;;;;7.07;5.47;;;;;;;;;;5052790;28;20792;-84
2023/05/15 02:44:46;;;;;;;5.13;4.60;;;;;;;;;;5052604;28;20741;-84
2023/05/15 02:47:13;;;;;;;8.27;5.50;;;;;;;;;;5052393;28;20411;-84
2023/05/15 02:49:39;;;;;;;8.30;5.33;;;;;;;;;;5052542;28;20867;-84
2023/05/15 02:52:05;;;;;;;6.33;5.27;;;;;;;;;;5052552;28;20755;-84
2023/05/15 02:54:31;;;;;;;5.17;4.57;;;;;;;;;;5043780;28;20468;-83
2023/05/15 02:56:57;;;;;;;5.13;4.37;;;;;;;;;;5032687;28;20819;-83
2023/05/15 02:59:23;;;;;;;5.80;5.20;;;;;;;;;;5032627;28;20184;-83
2023/05/15 03:01:49;;;;;;;7.77;5.60;;;;;;;;;;5014705;28;20480;-83
2023/05/15 03:04:15;;;;;;;7.00;5.30;;;;;;;;;;5032618;28;20438;-83
2023/05/15 03:06:41;;;;;;;5.13;4.37;;;;;;;;;;5032538;28;20506;-84
2023/05/15 03:09:07;;;;;;;6.80;5.10;;;;;;;;;;5035263;28;21050;-83
2023/05/15 03:11:33;;;;;;;5.10;4.40;;;;;;;;;;5036247;28;20495;-83
2023/05/15 03:14:02;;;;;;;7.40;5.37;;;;;;;;;;5036290;28;20900;-85
2023/05/15 03:16:28;;;;;;;7.10;5.00;;;;;;;;;;5035892;28;20420;-85
2023/05/15 03:18:54;;;;;;;6.47;5.63;;;;;;;;;;5036283;28;20422;-84
2023/05/15 03:21:20;;;;;;;6.10;5.50;;;;;;;;;;5018447;28;20423;-84
2023/05/15 03:23:46;;;;;;;6.13;4.00;;;;;;;;;;5036180;28;20181;-85
2023/05/15 03:26:12;;;;;;;6.40;5.10;;;;;;;;;;4995627;28;20430;-84
2023/05/15 03:28:38;;;;;;;6.67;5.47;;;;;;;;;;5036059;28;20461;-85
2023/05/15 03:31:04;;;;;;;7.00;5.27;;;;;;;;;;5018055;28;20769;-84
2023/05/15 03:33:30;;;;;;;7.43;5.60;;;;;;;;;;5035867;28;20536;-84
2023/05/15 03:35:56;;;;;;;5.90;5.13;;;;;;;;;;5035944;28;20409;-84
2023/05/15 03:38:22;;;;;;;7.57;6.03;;;;;;;;;;5018060;28;20563;-84
2023/05/15 03:40:48;;;;;;;8.60;5.37;;;;;;;;;;5018130;28;20422;-83
2023/05/15 03:43:14;;;;;;;7.70;5.77;;;;;;;;;;5035808;28;20413;-83
2023/05/15 03:45:40;;;;;;;6.47;4.70;;;;;;;;;;5035656;28;20428;-84
2023/05/15 03:48:06;;;;;;;7.90;4.83;;;;;;;;;;5035566;28;20468;-84
2023/05/15 03:50:32;;;;;;;7.43;6.20;;;;;;;;;;5035714;28;20458;-83
2023/05/15 03:52:58;;;;;;;9.20;6.27;;;;;;;;;;5017956;28;20419;-84
2023/05/15 03:55:24;;;;;;;6.67;5.80;;;;;;;;;;5035588;28;20425;-87
2023/05/15 03:57:50;;;;;;;9.07;5.87;;;;;;;;;;5035559;28;20460;-84
2023/05/15 04:00:16;;;;;;;6.70;6.00;;;;;;;;;;5034706;28;21012;-83
2023/05/15 04:02:41;;;;;;;7.37;6.00;;;;;;;;;;5035138;28;20414;-83
2023/05/15 04:05:08;;;;;;;9.40;6.23;;;;;;;;;;5035415;28;20922;-83
2023/05/15 04:07:34;;;;;;;10.60;6.80;;;;;;;;;;5035400;28;20196;-83
2023/05/15 04:10:00;;;;;;;10.20;6.67;;;;;;;;;;5035328;28;20469;-83
2023/05/15 04:12:29;;;;;;;8.80;6.00;;;;;;;;;;5035121;28;20474;-83
2023/05/15 04:14:56;;;;;;;6.93;5.90;;;;;;;;;;5035309;28;20414;-83
2023/05/15 04:17:22;;;;;;;10.00;6.80;;;;;;;;;;5034849;28;20427;-83
2023/05/15 04:19:48;;;;;;;7.60;6.43;;;;;;;;;;5033943;28;20414;-83
2023/05/15 04:22:13;;;;;;;7.43;6.67;;;;;;;;;;5035155;28;20913;-83
2023/05/15 04:24:39;;;;;;;8.93;6.33;;;;;;;;;;5035117;28;20178;-84
2023/05/15 04:27:05;;;;;;;10.80;6.30;;;;;;;;;;5034865;28;20237;-83
2023/05/15 04:29:31;;;;;;;8.57;6.97;;;;;;;;;;5016802;28;20840;-83
2023/05/15 04:31:57;;;;;;;7.20;6.27;;;;;;;;;;5032840;28;20410;-83
2023/05/15 04:34:23;;;;;;;6.33;5.67;;;;;;;;;;5034343;28;20772;-84
2023/05/15 04:36:49;;;;;;;7.47;5.87;;;;;;;;;;5034023;28;20481;-83
2023/05/15 04:39:15;;;;;;;7.07;6.37;;;;;;;;;;5033495;28;20422;-84
2023/05/15 04:41:44;;;;;;;8.70;6.27;;;;;;;;;;5034757;28;20468;-83
2023/05/15 04:44:10;;;;;;;9.93;6.53;;;;;;;;;;5034645;28;20415;-84
2023/05/15 04:46:36;;;;;;;8.80;6.27;;;;;;;;;;5034259;28;20414;-83
2023/05/15 04:49:02;;;;;;;9.83;7.50;;;;;;;;;;5034655;28;20466;-83
2023/05/15 04:51:28;;;;;;;8.73;6.73;;;;;;;;;;5034576;28;20411;-84
2023/05/15 04:53:54;;;;;;;8.17;6.93;;;;;;;;;;5034494;28;20172;-83
2023/05/15 04:56:20;;;;;;;7.60;5.93;;;;;;;;;;5034431;28;20412;-84
2023/05/15 04:58:46;;;;;;;8.90;7.80;;;;;;;;;;5034370;28;20424;-83
2023/05/15 05:01:12;;;;;;;8.00;7.20;;;;;;;;;;5016228;28;20775;-83
2023/05/15 05:03:38;;;;;;;7.57;6.73;;;;;;;;;;5034411;28;20386;-83
2023/05/15 05:06:04;;;;;;;9.33;7.30;;;;;;;;;;5016582;28;20181;-84
2023/05/15 05:08:30;;;;;;;7.73;6.93;;;;;;;;;;5034214;28;20236;-83
2023/05/15 05:10:56;;;;;;;9.53;7.70;;;;;;;;;;5034182;28;20399;-83
2023/05/15 05:13:22;;;;;;;11.53;7.00;;;;;;;;;;5033853;28;21004;-84
2023/05/15 05:15:51;;;;;;;10.50;7.27;;;;;;;;;;5033990;28;20444;-85
2023/05/15 05:18:18;;;;;;;9.17;6.73;;;;;;;;;;4975565;28;20942;-85
2023/05/15 05:20:44;;;;;;;9.07;7.40;;;;;;;;;;5034344;28;20426;-84
2023/05/15 05:23:10;;;;;;;11.37;8.20;;;;;;;;;;5016440;28;20461;-83
2023/05/15 05:25:35;;;;;;;9.97;7.20;;;;;;;;;;5033909;28;20952;-82
2023/05/15 05:28:01;;;;;;;8.20;7.30;;;;;;;;;;5033778;28;20174;-82
2023/05/15 05:30:27;;;;;;;11.10;8.20;;;;;;;;;;5033014;28;20705;-82
2023/05/15 05:32:53;;;;;;;9.30;8.40;;;;;;;;;;5033782;28;20446;-81
2023/05/15 05:35:19;;;;;;;8.60;7.70;;;;;;;;;;5033738;28;20542;-83
2023/05/15 05:37:45;;;;;;;9.33;7.17;;;;;;;;;;5033716;28;20179;-83
2023/05/15 05:40:11;;;;;;;7.80;7.00;;;;;;;;;;5033636;28;20413;-83
2023/05/15 05:42:37;;;;;;;11.27;7.70;;;;;;;;;;5033393;28;20640;-84
2023/05/15 05:45:03;;;;;;;9.80;7.90;;;;;;;;;;5015804;28;20456;-84
2023/05/15 05:47:29;;;;;;;9.30;7.37;;;;;;;;;;5033090;28;20185;-83
2023/05/15 05:49:55;;;;;;;8.70;6.50;;;;;;;;;;5033372;28;20469;-86
2023/05/15 05:52:21;;;;;;;6.77;6.17;;;;;;;;;;5033458;28;20414;-87
2023/05/15 05:54:47;;;;;;;8.40;7.50;;;;;;;;;;5033433;28;20415;-86
2023/05/15 05:57:13;;;;;;;9.33;7.83;;;;;;;;;;5033244;28;20415;-87
2023/05/15 05:59:45;;;;;;;8.20;6.70;;;;;;;;;;5033270;28;20415;-86
2023/05/15 06:02:12;;;;;;;8.93;6.97;;;;;;;;;;5033371;28;20411;-87
2023/05/15 06:04:38;;;;;;;8.60;6.93;;;;;;;;;;5033233;28;20416;-87
2023/05/15 06:07:04;;;;;;;8.10;7.30;;;;;;;;;;5033186;28;20810;-86
2023/05/15 06:09:30;;;;;;;9.50;7.30;;;;;;;;;;5015182;28;20995;-85
2023/05/15 06:11:56;;;;;;;8.93;6.70;;;;;;;;;;5015194;28;20458;-85
2023/05/15 06:14:22;;;;;;;8.83;7.93;;;;;;;;;;5033045;28;20905;-85
2023/05/15 06:16:48;;;;;;;8.70;7.90;;;;;;;;;;5032746;28;20415;-85
2023/05/15 06:19:14;;;;;;;7.33;6.57;;;;;;;;;;5015393;28;20827;-85
2023/05/15 06:21:39;;;;;;;6.83;6.00;;;;;;;;;;5033020;28;20407;-85
2023/05/15 06:24:05;;;;;;;7.63;6.83;;;;;;;;;;5015282;28;20521;-85
2023/05/15 06:26:31;;;;;;;8.43;6.30;;;;;;;;;;5015217;28;20185;-87
2023/05/15 06:28:57;;;;;;;6.40;5.67;;;;;;;;;;5015710;28;20885;-86
2023/05/15 06:31:26;;;;;;;6.67;5.23;;;;;;;;;;5033246;28;20419;-86
2023/05/15 06:33:52;;;;;;;6.07;5.47;;;;;;;;;;5033155;28;20420;-84
2023/05/15 06:36:17;;;;;;;7.50;5.47;;;;;;;;;;5032981;28;20401;-84
2023/05/15 06:38:43;;;;;;;5.73;5.17;;;;;;;;;;5033071;28;20419;-85
2023/05/15 06:41:09;;;;;;;6.00;5.50;;;;;;;;;;5032964;28;20191;-85
2023/05/15 06:43:35;;;;;;;5.20;4.63;;;;;;;;;;5034955;28;20451;-85
2023/05/15 06:46:01;;;;;;;7.33;5.97;;;;;;;;;;5019611;28;20407;-85
2023/05/15 06:48:27;;;;;;;5.50;4.87;;;;;;;;;;5017625;28;20220;-82
2023/05/15 06:50:56;;;;;;;5.67;4.30;;;;;;;;;;5038924;28;20187;-82
2023/05/15 06:53:29;;;;;;;4.60;4.00;;;;;;;;;;5056574;28;20173;-82
2023/05/15 06:55:55;;;;;;;5.33;4.43;;;;;;;;;;5056561;28;20414;-82
2023/05/15 06:58:21;;;;;;;4.30;3.90;;;;;;;;;;5056684;28;20414;-82
2023/05/15 07:00:47;;;;;;;5.20;4.80;;;;;;;;;;5056236;28;20214;-84
2023/05/15 07:03:13;;;;;;;3.80;3.50;;;;;;;;;;5056468;28;20173;-84
2023/05/15 07:05:39;;;;;;;4.73;4.00;;;;;;;;;;5056477;28;20209;-85
2023/05/15 07:08:05;;;;;;;3.77;3.37;;;;;;;;;;5056382;28;20427;-85
2023/05/15 07:10:31;;;;;;;3.83;2.93;;;;;;;;;;5056311;28;20416;-85
2023/05/15 07:12:57;;;;;;;3.67;2.50;;;;;;;;;;5056082;28;20451;-85
2023/05/15 07:15:23;;;;;;;2.50;2.30;;;;;;;;;;5055849;28;20690;-85
2023/05/15 07:17:48;;;;;;;4.13;3.40;;;;;;;;;;5021869;28;20209;-86
2023/05/15 07:20:14;;;;;;;3.80;2.50;;;;;;;;;;5056134;28;20170;-85
2023/05/15 07:22:40;;;;;;;3.20;2.90;;;;;;;;;;5056127;28;20232;-85
2023/05/15 07:25:06;;;;;;;4.40;3.03;;;;;;;;;;5056219;28;20412;-84
2023/05/15 07:27:32;;;;;;;3.60;2.13;;;;;;;;;;5038129;28;20216;-86
2023/05/15 07:29:58;;;;;;;2.20;2.00;;;;;;;;;;5055912;28;20499;-85
2023/05/15 07:32:24;;;;;;;3.60;1.80;;;;;;;;;;5037854;28;20219;-85
2023/05/15 07:34:50;;;;;;;2.10;1.70;;;;;;;;;;5056092;28;20894;-85
2023/05/15 07:37:16;;;;;;;1.90;1.70;;;;;;;;;;5038112;28;20810;-84
2023/05/15 07:39:42;;;;;;;2.00;1.43;;;;;;;;;;5055823;28;20461;-84
2023/05/15 07:42:08;;;;;;;2.50;1.90;;;;;;;;;;5055922;28;20166;-82
2023/05/15 07:44:34;;;;;;;2.10;1.47;;;;;;;;;;5055911;28;20424;-81
2023/05/15 07:47:00;;;;;;;1.60;1.50;;;;;;;;;;5055356;28;20418;-85
2023/05/15 07:49:26;;;;;;;2.40;1.40;;;;;;;;;;5055676;28;20209;-80
2023/05/15 07:51:52;;;;;;;1.60;1.20;;;;;;;;;;5022277;28;20183;-81
2023/05/15 07:54:18;;;;;;;1.90;1.40;;;;;;;;;;5015661;28;20417;-80
2023/05/15 07:56:44;;;;;;;1.43;1.30;;;;;;;;;;5016019;28;20644;-81
2023/05/15 07:59:09;;;;;;;2.03;1.77;;;;;;;;;;5015933;28;20520;-81
2023/05/15 08:01:35;;;;;;;1.70;1.30;;;;;;;;;;5015523;28;20705;-83
2023/05/15 08:04:01;;;;;;;1.20;0.93;;;;;;;;;;5015812;28;20176;-81
2023/05/15 08:06:27;;;;;;;1.93;1.40;;;;;;;;;;5015904;28;20198;-81
2023/05/15 08:08:53;;;;;;;1.97;1.00;;;;;;;;;;5015652;28;20639;-81
2023/05/15 08:11:20;;;;;;;1.70;1.43;;;;;;;;;;5015686;28;20178;-83
2023/05/15 08:13:46;;;;;;;1.27;1.10;;;;;;;;;;5015534;28;20630;-81
2023/05/15 08:16:12;;;;;;;1.60;1.50;;;;;;;;;;5015082;28;20414;-80
2023/05/15 08:18:37;;;;;;;1.67;1.20;;;;;;;;;;5015401;28;20202;-81
2023/05/15 08:21:03;;;;;;;2.70;2.13;;;;;;;;;;5015710;28;20266;-81
2023/05/15 08:23:29;;;;;;;2.00;1.80;;;;;;;;;;5015675;28;20225;-81
2023/05/15 08:25:55;;;;;;;1.87;1.57;;;;;;;;;;4997661;28;20183;-81
2023/05/15 08:28:21;;;;;;;1.40;1.30;;;;;;;;;;5014925;28;20218;-82
2023/05/15 08:30:47;;;;;;;2.00;1.30;;;;;;;;;;5014770;28;20179;-82
2023/05/15 08:33:13;;;;;;;1.43;1.07;;;;;;;;;;5026562;28;20544;-82
2023/05/15 08:35:39;;;;;;;1.43;1.27;;;;;;;;;;5054741;28;20461;-85
2023/05/15 08:38:05;;;;;;;2.53;1.13;;;;;;;;;;5054730;28;20401;-83
2023/05/15 08:40:31;;;;;;;2.20;1.53;;;;;;;;;;5054640;28;20174;-81
2023/05/15 08:43:00;;;;;;;1.53;1.20;;;;;;;;;;5054735;28;20212;-82
2023/05/15 08:45:26;;;;;;;2.50;1.53;;;;;;;;;;5054175;28;20174;-82
2023/05/15 08:47:53;;;;;;;1.93;1.57;;;;;;;;;;5054589;28;20411;-81
2023/05/15 08:50:20;;;;;;;1.73;1.37;;;;;;;;;;5054451;28;20474;-82
2023/05/15 08:52:47;;;;;;;2.67;1.70;;;;;;;;;;5054586;28;20416;-85
2023/05/15 08:55:14;;;;;;;1.43;1.20;;;;;;;;;;5054548;28;20412;-83
2023/05/15 08:57:40;;;;;;;2.00;1.03;;;;;;;;;;5054446;28;20404;-82
2023/05/15 09:00:07;;;;;;;1.27;1.13;;;;;;;;;;5020562;28;20472;-83
2023/05/15 09:02:35;;;;;;;1.90;1.37;;;;;;;;;;5046938;28;20415;-85
2023/05/15 09:05:01;;;;;;;1.47;1.30;;;;;;;;;;5053918;28;20574;-83
2023/05/15 09:07:27;;;;;;;2.30;1.10;;;;;;;;;;5053388;28;20801;-82
2023/05/15 09:09:53;;;;;;;2.23;0.90;;;;;;;;;;5054084;28;20969;-83
2023/05/15 09:12:20;;;;;;;1.97;1.80;;;;;;;;;;5053731;28;20479;-83
2023/05/15 09:14:46;;;;;;;1.50;1.17;;;;;;;;;;5053577;28;20477;-85
2023/05/15 09:17:12;;;;;;;3.03;2.20;;;;;;;;;;5053980;28;20469;-83
2023/05/15 09:19:45;;;;;;;1.30;0.83;;;;;;;;;;5054014;28;20412;-86
2023/05/15 09:22:17;;;;;;;2.50;1.27;;;;;;;;;;5053972;28;20177;-84
2023/05/15 09:24:44;;;;;;;1.70;1.23;;;;;;;;;;5053958;28;20530;-84
2023/05/15 09:27:10;;;;;;;2.57;1.50;;;;;;;;;;5053847;28;20411;-83
2023/05/15 09:29:37;;;;;;;1.70;1.60;;;;;;;;;;5053791;28;20503;-84
2023/05/15 09:32:04;;;;;;;1.97;1.07;;;;;;;;;;5053427;28;20413;-83
2023/05/15 09:34:30;;;;;;;1.47;1.37;;;;;;;;;;5045199;28;20417;-85
2023/05/15 09:36:57;;;;;;;2.30;1.63;;;;;;;;;;5033953;28;20416;-83
2023/05/15 09:39:23;;;;;;;2.90;1.40;;;;;;;;;;5024071;28;20418;-85
2023/05/15 09:41:49;;;;;;;1.67;1.30;;;;;;;;;;5016048;28;20414;-86
2023/05/15 09:44:19;;;;;;;1.60;1.20;;;;;;;;;;5014593;28;20570;-84
2023/05/15 09:46:45;;;;;;;1.13;1.03;;;;;;;;;;5014358;28;20501;-85
2023/05/15 09:49:14;;;;;;;1.90;1.43;;;;;;;;;;5014599;28;20473;-86
2023/05/15 09:51:40;;;;;;;1.20;1.00;;;;;;;;;;5004416;28;20433;-85
2023/05/15 09:54:10;;;;;;;1.63;1.40;;;;;;;;;;5014879;28;20422;-85
2023/05/15 09:56:36;;;;;;;1.20;1.10;;;;;;;;;;5003087;28;20414;-85
2023/05/15 09:59:02;;;;;;;1.43;1.10;;;;;;;;;;5016252;28;20509;-84
2023/05/15 10:01:28;;;;;;;1.67;1.23;;;;;;;;;;4991329;28;20555;-86
2023/05/15 10:03:58;;;;;;;1.63;1.40;;;;;;;;;;5032697;28;20178;-87
2023/05/15 10:06:23;;;;;;;1.57;1.37;;;;;;;;;;5017775;28;20650;-87
2023/05/15 10:08:51;;;;;;;1.23;1.10;;;;;;;;;;5017708;28;20460;-86
2023/05/15 10:11:17;;;;;;;1.50;1.23;;;;;;;;;;5034661;28;20266;-84
2023/05/15 10:13:43;;;;;;;1.50;1.30;;;;;;;;;;5026421;28;20512;-85
2023/05/15 10:16:09;;;;;;;1.70;1.60;;;;;;;;;;5006721;28;20458;-87
2023/05/15 10:18:35;;;;;;;2.00;1.60;;;;;;;;;;5014828;28;20787;-85
2023/05/15 10:21:03;;;;;;;1.40;1.03;;;;;;;;;;5015216;28;20426;-84
2023/05/15 10:23:30;;;;;;;2.40;1.50;;;;;;;;;;5014795;28;20410;-83
2023/05/15 10:26:02;;;;;;;1.60;1.20;;;;;;;;;;5015297;28;20933;-88
2023/05/15 10:28:28;;;;;;;2.10;1.73;;;;;;;;;;5033002;28;20452;-88
2023/05/15 10:30:57;;;;;;;1.77;0.80;;;;;;;;;;5032684;28;20499;-87
2023/05/15 10:33:23;;;;;;;2.07;1.60;;;;;;;;;;5032742;28;20409;-86
2023/05/15 10:35:50;;;;;;;1.90;1.30;;;;;;;;;;5015016;28;20443;-84
2023/05/15 10:38:16;;;;;;;1.83;1.40;;;;;;;;;;5015052;28;20632;-85
2023/05/15 10:40:43;;;;;;;2.20;1.50;;;;;;;;;;5032760;28;20419;-87
2023/05/15 10:43:10;;;;;;;4.20;1.73;;;;;;;;;;5032923;28;20420;-87
2023/05/15 10:45:37;;;;;;;1.83;1.70;;;;;;;;;;5032581;28;20412;-84
2023/05/15 10:48:04;;;;;;;3.07;1.30;;;;;;;;;;5032807;28;20440;-84
2023/05/15 10:50:30;;;;;;;1.67;1.57;;;;;;;;;;5032654;28;20504;-89
2023/05/15 10:52:56;;;;;;;1.40;1.30;;;;;;;;;;5032856;28;20488;-87
2023/05/15 10:55:22;;;;;;;2.60;1.90;;;;;;;;;;5015105;28;20874;-87
2023/05/15 10:57:48;;;;;;;2.57;1.70;;;;;;;;;;5032697;28;20413;-87
2023/05/15 11:00:23;;;;;;;2.10;1.90;;;;;;;;;;4992756;28;20917;-83
2023/05/15 11:02:52;;;;;;;1.87;1.70;;;;;;;;;;5032754;28;20170;-87
2023/05/15 11:05:18;;;;;;;2.80;1.60;;;;;;;;;;5032759;28;20816;-85
2023/05/15 11:07:44;;;;;;;1.87;1.63;;;;;;;;;;5032828;28;20416;-89
2023/05/15 11:10:28;;;;;;;1.60;1.50;;;;;;;;;;5032639;28;20210;-87
2023/05/15 11:12:58;;;;;;;1.70;1.60;;;;;;;;;;5031985;28;20218;-87
2023/05/15 11:15:23;;;;;;;2.60;1.20;;;;;;;;;;5032269;28;20409;-87
2023/05/15 11:18:05;;;;;;;2.70;1.17;;;;;;;;;;5032588;28;20463;-84
2023/05/15 11:20:32;;;;;;;1.60;1.33;;;;;;;;;;5032552;28;20451;-87
2023/05/15 11:22:58;;;;;;;1.20;1.10;;;;;;;;;;5014627;28;20914;-82
2023/05/15 11:25:30;;;;;;;1.23;1.00;;;;;;;;;;5013472;28;20413;-82
2023/05/15 11:27:55;;;;;;;2.10;1.90;;;;;;;;;;5031643;28;20459;-87
2023/05/15 11:30:23;;;;;;;1.70;0.70;;;;;;;;;;5016664;28;21036;-86
2023/05/15 11:32:50;;;;;;;1.53;1.33;;;;;;;;;;5035715;28;20409;-87
2023/05/15 11:35:23;;;;;;;1.40;1.30;;;;;;;;;;5018704;28;20431;-84
2023/05/15 11:37:53;;;;;;;2.70;1.30;;;;;;;;;;5035138;28;20408;-87
2023/05/15 11:40:21;;;;;;;2.10;1.23;;;;;;;;;;5035577;28;20937;-82
2023/05/15 11:43:07;;;;;;;1.70;1.47;;;26.40;1.00;;;;;;5035360;28;20506;-83
2023/05/15 11:45:35;;;;;;;2.33;1.90;;;26.40;1.00;;;;;;5035257;28;20466;-84
2023/05/15 11:48:02;;;;;;;2.27;1.03;;;26.30;1.00;;;;;;5035786;28;20413;-83
2023/05/15 11:50:30;;;;;;;1.50;1.40;;;26.10;1.00;;;;;;5038552;28;20793;-85
2023/05/15 11:52:56;;;;;;;1.63;1.53;;;25.80;99.90;;;;;;5036456;28;20451;-83
2023/05/15 11:55:22;;;;;;;1.63;1.30;;;25.80;99.90;;;;;;5035679;28;20512;-84
2023/05/15 11:57:47;;;;;;;1.40;1.00;;;25.80;99.90;;;;;;5035744;28;20167;-84
2023/05/15 12:00:14;;;;;;;2.83;1.03;;;25.80;99.90;;;;;;5035159;28;20167;-84
2023/05/15 12:02:42;;;;;;;4.50;1.43;;;;;;;;;;5035658;28;20765;-83
2023/05/15 12:05:08;;;;;;;2.13;1.83;;;24.50;99.90;;;;;;5035645;28;20408;-84
2023/05/15 12:07:39;;;;;;;1.63;1.23;;;25.50;99.90;;;;;;5035457;28;20412;-83
2023/05/15 12:10:05;;;;;;;2.40;1.40;;;25.40;99.90;;;;;;5037047;28;20507;-82
2023/05/15 12:12:31;;;;;;;2.00;1.40;;;25.50;99.90;;;;;;5033862;28;20480;-82
2023/05/15 12:15:00;;;;;;;2.10;1.63;;;25.40;99.90;;;;;;5033774;28;20769;-81
2023/05/15 12:17:26;;;;;;;2.23;1.33;;;25.30;99.90;;;;;;5034196;28;20579;-83
2023/05/15 12:19:54;;;;;;;2.00;1.03;;;25.40;99.90;;;;;;5034116;28;20421;-82
2023/05/15 12:22:20;;;;;;;2.13;0.90;;;25.30;99.90;;;;;;5034089;28;20503;-83
2023/05/15 12:24:46;;;;;;;1.93;1.40;;;25.30;99.90;;;;;;5033870;28;20421;-84
2023/05/15 12:27:12;;;;;;;1.73;1.33;;;25.30;99.90;;;;;;5000839;28;20439;-82
2023/05/15 12:29:39;;;;;;;1.67;1.10;;;25.30;99.90;;;;;;5053211;28;20212;-82
2023/05/15 12:32:06;;;;;;;3.00;1.53;;;25.30;99.90;;;;;;5035992;28;20431;-87
2023/05/15 12:34:32;;;;;;;2.60;1.33;;;25.50;99.90;;;;;;5054022;28;20423;-82
2023/05/15 12:36:58;;;;;;;1.20;1.07;;;25.70;99.90;;;;;;5053857;28;20940;-82
2023/05/15 12:39:25;;;;;;;1.63;1.00;;;25.50;99.90;;;;;;5053514;28;20429;-82
2023/05/15 12:41:53;;;;;;;4.13;1.90;;;25.60;99.90;;;;;;5051962;28;20413;-82
2023/05/15 12:44:19;;;;;;;2.10;1.30;;;25.50;99.90;;;;;;5045699;28;20432;-81
2023/05/15 12:46:45;;;;;;;1.13;0.97;;;25.70;99.90;;;;;;5032640;28;20495;-80
2023/05/15 12:49:11;;;;;;;1.93;1.20;;;25.70;99.90;;;;;;5032218;28;20456;-82
2023/05/15 12:51:42;;;;;;;4.47;2.00;;;25.80;99.90;;;;;;5032508;28;20854;-80
2023/05/15 12:54:17;;;;;;;1.73;1.30;;;25.90;99.90;;;;;;5032443;28;20171;-80
2023/05/15 12:56:43;;;;;;;1.67;1.00;;;25.90;99.90;;;;;;5031207;28;20436;-80
2023/05/15 12:59:09;;;;;;;2.33;1.60;;;25.80;99.90;;;;;;5032091;28;20420;-80
2023/05/15 13:01:34;;;;;;;2.60;1.33;;;25.70;99.90;;;;;;5032432;28;20500;-81
2023/05/15 13:04:00;;;;;;;4.27;1.73;;;25.70;99.90;;;;;;5032305;28;21013;-80
2023/05/15 13:06:27;;;;;;;2.83;1.90;;;25.70;99.90;;;;;;5014864;28;20185;-81
2023/05/15 13:08:53;;;;;;;1.70;1.30;;;25.70;99.90;;;;;;5032065;28;20202;-81
2023/05/15 13:11:19;;;;;;;1.93;1.17;;;25.70;99.90;;;;;;4996598;28;1013029;-81
2023/05/15 13:13:47;;;;;;;1.87;1.07;;;25.70;99.90;;;;;;5021309;28;20433;-80
2023/05/15 13:16:28;;;;;;;1.57;1.47;;;25.60;99.90;;;;;;5030470;28;20556;-79
2023/05/15 13:18:55;;;;;;;1.93;1.50;;;25.60;99.90;;;;;;5037903;28;20821;-79
2023/05/15 13:21:21;;;;;;;2.10;1.80;;;25.60;99.90;;;;;;5032762;28;20491;-78
2023/05/15 13:23:47;;;;;;;2.53;1.23;;;25.20;1.00;;;;;;5033011;28;20523;-78
2023/05/15 13:26:12;;;;;;;1.57;0.80;;;25.50;1.00;;;;;;5033149;28;20252;-80
2023/05/15 13:28:38;;;;;;;3.40;1.50;;;25.40;99.90;;;;;;5032826;28;20194;-79
2023/05/15 13:31:04;;;;;;;2.70;1.97;;;;;;;;;;4973375;28;20197;-80
2023/05/15 13:33:30;;;;;;;3.30;2.43;;;;;;;;;;5011468;28;20167;-81
2023/05/15 13:35:56;;;;;;;4.50;2.60;;;24.90;1.00;;;;;;5013133;28;20428;-80
2023/05/15 13:38:21;;;;;;;4.67;3.10;;;24.80;1.00;;;;;;5019510;28;20416;-80
2023/05/15 13:40:47;;;;;;;4.77;4.37;;;24.60;1.00;;;;;;5032973;28;20185;-81
2023/05/15 13:43:13;;;;;;;6.13;3.90;;;;;;;;;;5041774;28;20199;-86
2023/05/15 13:45:39;;;;;;;6.90;4.67;;;23.80;66.30;;;;;;5032260;28;20229;-81
2023/05/15 13:48:05;;;;;;;5.60;5.10;;;23.70;62.00;;;;;;5032741;28;20920;-82
2023/05/15 13:50:30;;;;;;;5.30;4.90;;;23.40;79.90;;;;;;5032776;28;20471;-82
2023/05/15 13:52:56;;;;;;;5.40;4.90;;;23.20;91.30;;;;;;5014954;28;20184;-84
2023/05/15 13:55:22;;;;;;;6.73;5.40;;;22.80;99.90;;;;;;5015016;28;20566;-83
2023/05/15 13:57:47;;;;;;;5.10;4.30;;;22.60;99.90;;;;;;5030980;28;20180;-81
2023/05/15 14:00:13;;;;;;;7.27;5.33;;;22.50;99.90;;;;;;5032338;28;20171;-84
2023/05/15 14:02:40;;;;;;;5.57;5.03;;;22.30;99.90;;;;;;5032547;28;20249;-83
2023/05/15 14:05:06;;;;;;;6.63;5.70;;;22.10;99.90;;;;;;5032267;28;20441;-84
2023/05/15 14:07:32;;;;;;;7.13;6.40;;;22.10;1.00;;;;;;5032504;28;20425;-84
2023/05/15 14:09:58;;;;;;;11.80;7.93;;;22.10;1.00;;;;;;5032512;28;20482;-83
2023/05/15 14:12:23;;;;;;;7.27;6.30;;;22.00;1.00;;;;;;5032034;28;20310;-83
2023/05/15 14:14:49;;;;;;;7.33;5.63;;;21.70;1.00;;;;;;5032206;28;20258;-82
2023/05/15 14:17:15;;;;;;;7.90;7.20;;;22.10;64.80;;;;;;5032524;28;20203;-82
2023/05/15 14:19:41;;;;;;;7.33;6.23;;;22.10;1.00;;;;;;5032393;28;20175;-83